sensor_id;sensor_type;location;lat;lon;timestamp;pressure;altitude;pressure_sealevel;temperature;humidity
44481;BME280;30184;42.018;23.670;2022-08-19T00:01:59;91515.72;;;17.58;70.81
44481;BME280;30184;42.018;23.670;2022-08-19T00:04:31;91529.91;;;17.57;70.72
44481;BME280;30184;42.018;23.670;2022-08-19T00:07:03;91305.69;;;15.27;70.64
44481;BME280;30184;42.018;23.670;2022-08-19T00:09:33;91436.03;;;17.03;70.87
44481;BME280;30184;42.018;23.670;2022-08-19T00:12:04;91333.59;;;16.03;71.06
44481;BME280;30184;42.018;23.670;2022-08-19T00:14:33;91483.91;;;15.92;70.94
44481;BME280;30184;42.018;23.670;2022-08-19T00:17:03;91621.78;;;17.46;71.11
44481;BME280;30184;42.018;23.670;2022-08-19T00:19:32;91525.06;;;16.93;71.44
44481;BME280;30184;42.018;23.670;2022-08-19T00:22:03;91493.00;;;16.84;71.59
44481;BME280;30184;42.018;23.670;2022-08-19T00:24:33;91556.34;;;16.62;71.64
44481;BME280;30184;42.018;23.670;2022-08-19T00:27:04;91321.03;;;15.96;71.56
44481;BME280;30184;42.018;23.670;2022-08-19T00:29:33;91474.13;;;17.30;71.67
44481;BME280;30184;42.018;23.670;2022-08-19T00:32:03;91471.84;;;17.29;71.76
44481;BME280;30184;42.018;23.670;2022-08-19T00:34:32;91350.25;;;16.29;72.01
44481;BME280;30184;42.018;23.670;2022-08-19T00:37:03;91040.56;;;14.03;72.29
44481;BME280;30184;42.018;23.670;2022-08-19T00:39:31;91472.69;;;17.20;72.19
44481;BME280;30184;42.018;23.670;2022-08-19T00:42:01;91501.25;;;17.13;72.53
44481;BME280;30184;42.018;23.670;2022-08-19T00:44:31;91473.25;;;17.09;70.96
44481;BME280;30184;42.018;23.670;2022-08-19T00:47:00;91184.44;;;14.68;71.88
44481;BME280;30184;42.018;23.670;2022-08-19T00:49:34;91491.94;;;16.82;72.43
44481;BME280;30184;42.018;23.670;2022-08-19T00:52:06;91316.31;;;15.49;72.20
44481;BME280;30184;42.018;23.670;2022-08-19T00:54:37;91464.00;;;16.92;72.87
44481;BME280;30184;42.018;23.670;2022-08-19T00:57:11;91460.97;;;16.90;73.33
44481;BME280;30184;42.018;23.670;2022-08-19T00:59:46;91469.47;;;16.92;73.31
44481;BME280;30184;42.018;23.670;2022-08-19T01:02:16;91375.28;;;16.22;72.88
44481;BME280;30184;42.018;23.670;2022-08-19T01:04:45;91334.16;;;15.12;72.26
44481;BME280;30184;42.018;23.670;2022-08-19T01:07:14;91470.63;;;16.86;73.19
44481;BME280;30184;42.018;23.670;2022-08-19T01:09:44;91581.47;;;16.85;73.04
44481;BME280;30184;42.018;23.670;2022-08-19T01:12:13;91158.41;;;14.58;72.63
44481;BME280;30184;42.018;23.670;2022-08-19T01:14:44;91368.25;;;14.92;72.59
44481;BME280;30184;42.018;23.670;2022-08-19T01:17:14;91386.88;;;15.03;73.34
44481;BME280;30184;42.018;23.670;2022-08-19T01:19:45;91488.16;;;16.79;73.80
44481;BME280;30184;42.018;23.670;2022-08-19T01:22:19;91416.34;;;14.99;73.57
44481;BME280;30184;42.018;23.670;2022-08-19T01:24:55;91537.03;;;16.33;73.10
44481;BME280;30184;42.018;23.670;2022-08-19T01:27:25;91445.84;;;15.70;73.73
44481;BME280;30184;42.018;23.670;2022-08-19T01:29:54;91511.78;;;16.05;73.49
44481;BME280;30184;42.018;23.670;2022-08-19T01:32:23;91552.47;;;16.69;73.91
44481;BME280;30184;42.018;23.670;2022-08-19T01:34:52;91236.22;;;14.63;73.64
44481;BME280;30184;42.018;23.670;2022-08-19T01:37:21;91387.28;;;16.00;74.03
44481;BME280;30184;42.018;23.670;2022-08-19T01:39:51;91203.25;;;14.33;73.16
44481;BME280;30184;42.018;23.670;2022-08-19T01:42:22;91470.16;;;15.68;73.41
44481;BME280;30184;42.018;23.670;2022-08-19T01:44:51;91485.69;;;16.66;73.78
44481;BME280;30184;42.018;23.670;2022-08-19T01:47:20;91325.50;;;15.13;73.56
44481;BME280;30184;42.018;23.670;2022-08-19T01:49:49;91395.28;;;15.89;74.00
44481;BME280;30184;42.018;23.670;2022-08-19T01:52:18;91396.09;;;14.73;74.12
44481;BME280;30184;42.018;23.670;2022-08-19T01:54:47;91497.63;;;16.54;74.42
44481;BME280;30184;42.018;23.670;2022-08-19T01:57:16;91071.03;;;13.68;73.85
44481;BME280;30184;42.018;23.670;2022-08-19T01:59:46;91097.84;;;13.70;74.11
44481;BME280;30184;42.018;23.670;2022-08-19T02:02:16;91488.56;;;16.48;74.13
44481;BME280;30184;42.018;23.670;2022-08-19T02:04:45;91553.25;;;15.80;74.16
44481;BME280;30184;42.018;23.670;2022-08-19T02:07:14;91480.66;;;16.41;73.36
44481;BME280;30184;42.018;23.670;2022-08-19T02:09:43;91600.31;;;16.35;72.89
44481;BME280;30184;42.018;23.670;2022-08-19T02:12:12;91511.44;;;15.37;73.51
44481;BME280;30184;42.018;23.670;2022-08-19T02:14:41;91524.38;;;15.27;73.77
44481;BME280;30184;42.018;23.670;2022-08-19T02:17:12;91306.84;;;14.79;74.45
44481;BME280;30184;42.018;23.670;2022-08-19T02:19:41;91468.34;;;16.22;75.10
44481;BME280;30184;42.018;23.670;2022-08-19T02:22:10;91429.44;;;14.86;75.45
44481;BME280;30184;42.018;23.670;2022-08-19T02:24:39;91473.25;;;16.18;75.55
44481;BME280;30184;42.018;23.670;2022-08-19T02:27:08;91215.34;;;13.90;75.45
44481;BME280;30184;42.018;23.670;2022-08-19T02:29:37;91439.34;;;15.91;75.81
44481;BME280;30184;42.018;23.670;2022-08-19T02:32:06;91471.31;;;16.09;75.54
44481;BME280;30184;42.018;23.670;2022-08-19T02:34:37;91308.25;;;13.96;75.34
44481;BME280;30184;42.018;23.670;2022-08-19T02:37:06;91470.16;;;16.01;76.11
44481;BME280;30184;42.018;23.670;2022-08-19T02:39:56;91465.31;;;15.96;76.21
44481;BME280;30184;42.018;23.670;2022-08-19T02:42:24;91494.66;;;15.95;76.31
44481;BME280;30184;42.018;23.670;2022-08-19T02:44:55;91471.72;;;15.93;76.21
44481;BME280;30184;42.018;23.670;2022-08-19T02:47:24;91479.34;;;15.89;76.47
44481;BME280;30184;42.018;23.670;2022-08-19T02:49:54;91369.41;;;14.59;76.73
44481;BME280;30184;42.018;23.670;2022-08-19T02:52:31;90872.31;;;11.66;76.64
44481;BME280;30184;42.018;23.670;2022-08-19T02:55:00;91487.59;;;15.80;76.58
44481;BME280;30184;42.018;23.670;2022-08-19T02:57:29;91524.66;;;15.29;76.39
44481;BME280;30184;42.018;23.670;2022-08-19T03:00:00;91235.31;;;14.05;76.46
44481;BME280;30184;42.018;23.670;2022-08-19T03:02:29;91447.00;;;15.03;77.28
44481;BME280;30184;42.018;23.670;2022-08-19T03:05:00;91496.31;;;15.69;77.30
44481;BME280;30184;42.018;23.670;2022-08-19T03:07:31;91287.59;;;14.13;77.14
44481;BME280;30184;42.018;23.670;2022-08-19T03:10:00;91199.66;;;13.12;77.13
44481;BME280;30184;42.018;23.670;2022-08-19T03:12:29;91388.19;;;14.75;77.47
44481;BME280;30184;42.018;23.670;2022-08-19T03:14:58;91497.56;;;15.59;77.55
44481;BME280;30184;42.018;23.670;2022-08-19T03:17:28;91506.22;;;15.57;77.81
44481;BME280;30184;42.018;23.670;2022-08-19T03:19:57;91293.25;;;13.73;77.50
44481;BME280;30184;42.018;23.670;2022-08-19T03:22:27;91288.81;;;14.12;77.45
44481;BME280;30184;42.018;23.670;2022-08-19T03:24:57;91208.44;;;13.16;76.71
44481;BME280;30184;42.018;23.670;2022-08-19T03:27:26;91319.47;;;13.70;77.01
44481;BME280;30184;42.018;23.670;2022-08-19T03:29:59;91502.28;;;15.49;77.75
44481;BME280;30184;42.018;23.670;2022-08-19T03:32:28;91468.47;;;14.77;78.08
44481;BME280;30184;42.018;23.670;2022-08-19T03:34:57;91141.81;;;11.95;77.86
44481;BME280;30184;42.018;23.670;2022-08-19T03:37:28;91422.19;;;14.19;78.17
44481;BME280;30184;42.018;23.670;2022-08-19T03:39:57;91234.56;;;12.68;77.89
44481;BME280;30184;42.018;23.670;2022-08-19T03:42:26;91184.13;;;12.05;78.10
44481;BME280;30184;42.018;23.670;2022-08-19T03:44:56;91304.13;;;14.09;78.34
44481;BME280;30184;42.018;23.670;2022-08-19T03:47:25;91196.63;;;13.10;78.02
44481;BME280;30184;42.018;23.670;2022-08-19T03:49:54;91381.97;;;13.47;77.53
44481;BME280;30184;42.018;23.670;2022-08-19T03:52:23;91559.72;;;15.40;77.64
44481;BME280;30184;42.018;23.670;2022-08-19T03:54:54;91311.63;;;12.56;76.65
44481;BME280;30184;42.018;23.670;2022-08-19T03:57:23;91150.47;;;12.97;77.67
44481;BME280;30184;42.018;23.670;2022-08-19T03:59:52;91346.84;;;13.39;78.18
44481;BME280;30184;42.018;23.670;2022-08-19T04:02:21;91466.97;;;13.63;78.02
44481;BME280;30184;42.018;23.670;2022-08-19T04:04:53;91489.38;;;14.99;77.75
44481;BME280;30184;42.018;23.670;2022-08-19T04:07:22;91224.75;;;12.30;77.83
44481;BME280;30184;42.018;23.670;2022-08-19T04:09:53;91523.56;;;15.45;78.29
44481;BME280;30184;42.018;23.670;2022-08-19T04:12:22;91279.41;;;13.03;77.99
44481;BME280;30184;42.018;23.670;2022-08-19T04:14:51;91434.81;;;14.35;78.35
44481;BME280;30184;42.018;23.670;2022-08-19T04:17:20;91513.56;;;15.42;78.44
44481;BME280;30184;42.018;23.670;2022-08-19T04:19:49;91526.63;;;15.47;78.65
44481;BME280;30184;42.018;23.670;2022-08-19T04:22:18;91314.28;;;13.81;78.15
44481;BME280;30184;42.018;23.670;2022-08-19T04:24:47;91079.66;;;12.43;78.22
44481;BME280;30184;42.018;23.670;2022-08-19T04:27:18;91526.13;;;15.58;77.89
44481;BME280;30184;42.018;23.670;2022-08-19T04:29:47;91596.25;;;15.10;78.03
44481;BME280;30184;42.018;23.670;2022-08-19T04:32:16;91177.41;;;12.86;78.11
44481;BME280;30184;42.018;23.670;2022-08-19T04:34:45;91560.31;;;15.62;77.97
44481;BME280;30184;42.018;23.670;2022-08-19T04:37:14;91490.91;;;15.42;78.27
44481;BME280;30184;42.018;23.670;2022-08-19T04:39:43;91398.84;;;14.09;78.12
44481;BME280;30184;42.018;23.670;2022-08-19T04:42:31;91451.69;;;15.03;78.18
44481;BME280;30184;42.018;23.670;2022-08-19T04:45:11;91278.25;;;12.74;76.59
44481;BME280;30184;42.018;23.670;2022-08-19T04:47:42;91386.13;;;13.78;77.04
44481;BME280;30184;42.018;23.670;2022-08-19T04:50:12;91572.28;;;15.74;78.20
44481;BME280;30184;42.018;23.670;2022-08-19T04:52:45;91278.31;;;14.29;77.68
44481;BME280;30184;42.018;23.670;2022-08-19T04:55:14;91515.22;;;15.91;77.26
44481;BME280;30184;42.018;23.670;2022-08-19T04:57:45;91231.50;;;14.12;76.03
44481;BME280;30184;42.018;23.670;2022-08-19T05:00:14;91302.31;;;14.15;75.34
44481;BME280;30184;42.018;23.670;2022-08-19T05:02:43;91272.31;;;13.97;75.44
44481;BME280;30184;42.018;23.670;2022-08-19T05:05:12;91392.84;;;15.91;75.60
44481;BME280;30184;42.018;23.670;2022-08-19T05:07:42;91386.75;;;15.30;74.51
44481;BME280;30184;42.018;23.670;2022-08-19T05:10:12;91524.13;;;17.10;73.91
44481;BME280;30184;42.018;23.670;2022-08-19T05:12:41;91333.13;;;15.33;72.36
44481;BME280;30184;42.018;23.670;2022-08-19T05:15:12;91449.25;;;17.19;72.79
44481;BME280;30184;42.018;23.670;2022-08-19T05:17:41;91497.66;;;17.66;72.54
44481;BME280;30184;42.018;23.670;2022-08-19T05:20:30;91248.44;;;15.72;71.66
44481;BME280;30184;42.018;23.670;2022-08-19T05:23:17;91663.28;;;17.93;71.93
44481;BME280;30184;42.018;23.670;2022-08-19T05:25:49;91175.53;;;15.06;71.04
44481;BME280;30184;42.018;23.670;2022-08-19T05:28:19;91208.59;;;15.56;71.05
44481;BME280;30184;42.018;23.670;2022-08-19T05:30:50;91447.88;;;17.73;70.81
44481;BME280;30184;42.018;23.670;2022-08-19T05:33:19;91497.94;;;18.38;70.35
44481;BME280;30184;42.018;23.670;2022-08-19T05:35:49;91488.66;;;18.56;67.51
44481;BME280;30184;42.018;23.670;2022-08-19T05:38:18;91461.19;;;18.15;68.39
44481;BME280;30184;42.018;23.670;2022-08-19T05:40:48;91252.66;;;17.25;68.45
44481;BME280;30184;42.018;23.670;2022-08-19T05:43:17;91473.16;;;18.53;66.90
44481;BME280;30184;42.018;23.670;2022-08-19T05:45:47;91578.47;;;18.79;65.20
44481;BME280;30184;42.018;23.670;2022-08-19T05:48:19;91369.25;;;18.31;68.52
44481;BME280;30184;42.018;23.670;2022-08-19T05:50:48;91389.63;;;17.84;68.06
44481;BME280;30184;42.018;23.670;2022-08-19T05:53:18;91566.91;;;19.62;68.45
44481;BME280;30184;42.018;23.670;2022-08-19T05:55:47;91233.84;;;17.99;67.11
44481;BME280;30184;42.018;23.670;2022-08-19T05:58:16;91434.69;;;19.25;66.07
44481;BME280;30184;42.018;23.670;2022-08-19T06:00:46;91308.13;;;18.88;65.00
44481;BME280;30184;42.018;23.670;2022-08-19T06:03:15;91207.50;;;17.41;64.06
44481;BME280;30184;42.018;23.670;2022-08-19T06:05:45;91142.09;;;17.60;63.87
44481;BME280;30184;42.018;23.670;2022-08-19T06:08:14;91416.00;;;20.03;63.83
44481;BME280;30184;42.018;23.670;2022-08-19T06:10:45;91474.69;;;20.57;63.23
44481;BME280;30184;42.018;23.670;2022-08-19T06:13:14;91177.06;;;17.85;62.23
44481;BME280;30184;42.018;23.670;2022-08-19T06:15:45;91498.59;;;20.82;62.98
44481;BME280;30184;42.018;23.670;2022-08-19T06:18:15;91291.25;;;19.43;62.34
44481;BME280;30184;42.018;23.670;2022-08-19T06:20:46;91275.06;;;19.56;61.59
44481;BME280;30184;42.018;23.670;2022-08-19T06:23:21;91454.59;;;21.27;61.15
44481;BME280;30184;42.018;23.670;2022-08-19T06:25:50;91345.22;;;20.20;61.06
44481;BME280;30184;42.018;23.670;2022-08-19T06:28:19;91465.44;;;21.58;61.28
44481;BME280;30184;42.018;23.670;2022-08-19T06:30:48;91409.38;;;21.13;60.41
44481;BME280;30184;42.018;23.670;2022-08-19T06:33:17;91464.91;;;21.88;59.88
44481;BME280;30184;42.018;23.670;2022-08-19T06:35:48;91231.31;;;20.45;59.46
44481;BME280;30184;42.018;23.670;2022-08-19T06:38:17;91442.31;;;22.06;58.72
44481;BME280;30184;42.018;23.670;2022-08-19T06:40:47;91382.84;;;21.44;58.82
44481;BME280;30184;42.018;23.670;2022-08-19T06:43:17;91258.88;;;20.34;56.52
44481;BME280;30184;42.018;23.670;2022-08-19T06:45:46;91266.59;;;20.30;55.42
44481;BME280;30184;42.018;23.670;2022-08-19T06:48:15;91444.47;;;22.52;57.22
44481;BME280;30184;42.018;23.670;2022-08-19T06:50:44;91188.97;;;20.93;55.52
44481;BME280;30184;42.018;23.670;2022-08-19T06:53:16;91340.41;;;21.13;55.33
44481;BME280;30184;42.018;23.670;2022-08-19T06:55:46;91432.81;;;22.87;54.39
44481;BME280;30184;42.018;23.670;2022-08-19T06:58:15;91373.91;;;22.34;54.63
44481;BME280;30184;42.018;23.670;2022-08-19T07:00:44;91388.31;;;22.11;54.92
44481;BME280;30184;42.018;23.670;2022-08-19T07:03:13;91424.06;;;23.24;55.58
44481;BME280;30184;42.018;23.670;2022-08-19T07:05:43;91379.28;;;22.79;55.21
44481;BME280;30184;42.018;23.670;2022-08-19T07:08:12;91173.56;;;21.42;56.19
44481;BME280;30184;42.018;23.670;2022-08-19T07:10:44;91423.06;;;23.63;54.84
44481;BME280;30184;42.018;23.670;2022-08-19T07:13:14;91423.72;;;23.74;53.58
44481;BME280;30184;42.018;23.670;2022-08-19T07:15:43;91419.06;;;23.88;53.73
44481;BME280;30184;42.018;23.670;2022-08-19T07:18:13;91355.69;;;23.43;53.40
44481;BME280;30184;42.018;23.670;2022-08-19T07:20:42;91418.09;;;24.10;52.48
44481;BME280;30184;42.018;23.670;2022-08-19T07:23:12;91419.06;;;24.18;51.59
44481;BME280;30184;42.018;23.670;2022-08-19T07:25:41;91294.81;;;23.08;51.24
44481;BME280;30184;42.018;23.670;2022-08-19T07:28:12;91400.78;;;24.28;51.18
44481;BME280;30184;42.018;23.670;2022-08-19T07:30:41;91306.81;;;23.52;51.00
44481;BME280;30184;42.018;23.670;2022-08-19T07:33:11;91488.84;;;24.22;52.66
44481;BME280;30184;42.018;23.670;2022-08-19T07:35:40;91261.00;;;22.50;50.75
44481;BME280;30184;42.018;23.670;2022-08-19T07:38:09;91243.38;;;23.18;50.93
44481;BME280;30184;42.018;23.670;2022-08-19T07:40:38;91428.22;;;24.80;50.00
44481;BME280;30184;42.018;23.670;2022-08-19T07:43:09;91351.84;;;24.55;49.97
44481;BME280;30184;42.018;23.670;2022-08-19T07:45:41;91236.16;;;23.10;49.47
44481;BME280;30184;42.018;23.670;2022-08-19T07:48:12;91273.75;;;24.08;50.11
44481;BME280;30184;42.018;23.670;2022-08-19T07:50:42;91418.81;;;25.64;50.61
44481;BME280;30184;42.018;23.670;2022-08-19T07:53:12;91364.41;;;25.50;49.83
44481;BME280;30184;42.018;23.670;2022-08-19T07:55:40;91184.13;;;23.57;50.19
44481;BME280;30184;42.018;23.670;2022-08-19T07:58:12;91020.66;;;23.00;48.23
44481;BME280;30184;42.018;23.670;2022-08-19T08:00:44;91402.13;;;25.64;46.89
44481;BME280;30184;42.018;23.670;2022-08-19T08:03:17;91408.81;;;26.32;48.69
44481;BME280;30184;42.018;23.670;2022-08-19T08:05:47;91395.25;;;26.55;50.57
44481;BME280;30184;42.018;23.670;2022-08-19T08:08:33;91394.91;;;26.72;47.42
44481;BME280;30184;42.018;23.670;2022-08-19T08:11:20;91341.00;;;26.49;47.16
44481;BME280;30184;42.018;23.670;2022-08-19T08:13:49;91284.13;;;25.65;44.92
44481;BME280;30184;42.018;23.670;2022-08-19T08:16:20;91392.53;;;27.16;46.65
44481;BME280;30184;42.018;23.670;2022-08-19T08:18:49;91134.91;;;24.88;45.02
44481;BME280;30184;42.018;23.670;2022-08-19T08:21:18;91318.66;;;27.01;43.99
44481;BME280;30184;42.018;23.670;2022-08-19T08:23:47;91105.84;;;25.08;44.95
44481;BME280;30184;42.018;23.670;2022-08-19T08:26:19;91269.56;;;26.64;42.30
44481;BME280;30184;42.018;23.670;2022-08-19T08:28:48;90988.91;;;24.72;42.73
44481;BME280;30184;42.018;23.670;2022-08-19T08:31:18;90992.63;;;25.14;42.21
44481;BME280;30184;42.018;23.670;2022-08-19T08:33:49;91339.53;;;27.63;41.69
44481;BME280;30184;42.018;23.670;2022-08-19T08:36:18;91297.03;;;27.49;41.88
44481;BME280;30184;42.018;23.670;2022-08-19T08:38:47;91213.69;;;26.28;41.26
44481;BME280;30184;42.018;23.670;2022-08-19T08:41:23;91370.97;;;28.26;44.57
44481;BME280;30184;42.018;23.670;2022-08-19T08:43:56;91147.50;;;25.87;43.33
44481;BME280;30184;42.018;23.670;2022-08-19T08:46:32;91363.75;;;28.58;41.27
44481;BME280;30184;42.018;23.670;2022-08-19T08:49:06;91361.94;;;28.69;38.39
44481;BME280;30184;42.018;23.670;2022-08-19T08:51:48;91367.78;;;28.78;40.61
44481;BME280;30184;42.018;23.670;2022-08-19T08:54:20;91351.81;;;28.86;38.03
44481;BME280;30184;42.018;23.670;2022-08-19T08:56:53;91341.06;;;28.90;38.42
44481;BME280;30184;42.018;23.670;2022-08-19T08:59:26;91318.09;;;28.20;38.29
44481;BME280;30184;42.018;23.670;2022-08-19T09:02:00;91348.91;;;29.00;37.15
44481;BME280;30184;42.018;23.670;2022-08-19T09:04:31;91355.31;;;28.23;37.88
44481;BME280;30184;42.018;23.670;2022-08-19T09:07:15;91147.16;;;27.55;38.03
44481;BME280;30184;42.018;23.670;2022-08-19T09:09:51;91339.50;;;29.25;36.59
44481;BME280;30184;42.018;23.670;2022-08-19T09:12:25;90999.19;;;26.19;36.60
44481;BME280;30184;42.018;23.670;2022-08-19T09:15:05;91331.88;;;29.33;36.65
44481;BME280;30184;42.018;23.670;2022-08-19T09:17:35;91114.13;;;27.10;36.69
44481;BME280;30184;42.018;23.670;2022-08-19T09:20:19;91317.97;;;29.49;38.07
44481;BME280;30184;42.018;23.670;2022-08-19T09:22:49;91313.31;;;29.59;35.89
44481;BME280;30184;42.018;23.670;2022-08-19T09:25:19;91309.78;;;29.58;35.67
44481;BME280;30184;42.018;23.670;2022-08-19T09:27:51;91339.03;;;28.99;35.69
44481;BME280;30184;42.018;23.670;2022-08-19T09:30:27;91122.13;;;27.63;38.50
44481;BME280;30184;42.018;23.670;2022-08-19T09:32:58;91106.88;;;28.00;37.96
44481;BME280;30184;42.018;23.670;2022-08-19T09:35:30;91293.09;;;29.22;35.55
44481;BME280;30184;42.018;23.670;2022-08-19T09:37:59;91293.03;;;29.81;35.13
44481;BME280;30184;42.018;23.670;2022-08-19T09:40:29;91252.38;;;29.65;35.43
44481;BME280;30184;42.018;23.670;2022-08-19T09:42:59;91252.31;;;29.19;34.29
44481;BME280;30184;42.018;23.670;2022-08-19T09:45:30;90949.22;;;27.47;34.30
44481;BME280;30184;42.018;23.670;2022-08-19T09:47:59;91175.47;;;28.82;33.95
44481;BME280;30184;42.018;23.670;2022-08-19T09:50:30;91018.41;;;28.08;34.62
44481;BME280;30184;42.018;23.670;2022-08-19T09:53:01;91316.16;;;30.04;35.07
44481;BME280;30184;42.018;23.670;2022-08-19T09:55:30;91199.16;;;28.97;34.39
44481;BME280;30184;42.018;23.670;2022-08-19T09:58:09;91264.16;;;30.01;34.16
44481;BME280;30184;42.018;23.670;2022-08-19T10:00:39;91066.72;;;28.69;33.50
44481;BME280;30184;42.018;23.670;2022-08-19T10:03:08;91015.50;;;28.36;34.11
44481;BME280;30184;42.018;23.670;2022-08-19T10:05:40;91168.13;;;29.46;33.32
44481;BME280;30184;42.018;23.670;2022-08-19T10:08:20;91274.00;;;30.18;33.00
44481;BME280;30184;42.018;23.670;2022-08-19T10:10:51;91122.34;;;28.59;34.25
44481;BME280;30184;42.018;23.670;2022-08-19T10:13:22;91271.94;;;30.26;34.55
44481;BME280;30184;42.018;23.670;2022-08-19T10:15:55;91271.72;;;30.31;34.02
44481;BME280;30184;42.018;23.670;2022-08-19T10:18:25;91260.69;;;30.41;32.41
44481;BME280;30184;42.018;23.670;2022-08-19T10:21:04;90931.66;;;27.60;32.68
44481;BME280;30184;42.018;23.670;2022-08-19T10:23:37;90927.59;;;27.61;32.94
44481;BME280;30184;42.018;23.670;2022-08-19T10:26:06;90894.16;;;27.92;33.30
44481;BME280;30184;42.018;23.670;2022-08-19T10:28:36;90867.41;;;27.15;32.56
44481;BME280;30184;42.018;23.670;2022-08-19T10:31:06;91010.69;;;29.05;32.33
44481;BME280;30184;42.018;23.670;2022-08-19T10:33:36;91083.47;;;29.60;32.18
44481;BME280;30184;42.018;23.670;2022-08-19T10:36:11;90960.25;;;28.27;32.16
44481;BME280;30184;42.018;23.670;2022-08-19T10:38:43;91164.59;;;29.53;31.86
44481;BME280;30184;42.018;23.670;2022-08-19T10:41:18;91128.53;;;29.87;32.04
44481;BME280;30184;42.018;23.670;2022-08-19T10:43:50;90911.63;;;27.84;32.29
44481;BME280;30184;42.018;23.670;2022-08-19T10:46:21;90978.69;;;28.99;31.73
44481;BME280;30184;42.018;23.670;2022-08-19T10:48:51;91218.38;;;30.85;31.49
44481;BME280;30184;42.018;23.670;2022-08-19T10:51:22;90996.72;;;28.75;31.32
44481;BME280;30184;42.018;23.670;2022-08-19T10:54:09;90965.78;;;29.26;31.34
44481;BME280;30184;42.018;23.670;2022-08-19T10:56:39;91132.31;;;30.37;31.47
44481;BME280;30184;42.018;23.670;2022-08-19T10:59:21;90806.63;;;28.17;31.57
44481;BME280;30184;42.018;23.670;2022-08-19T11:01:51;90949.25;;;28.98;31.92
44481;BME280;30184;42.018;23.670;2022-08-19T11:04:21;91173.31;;;30.58;31.23
44481;BME280;30184;42.018;23.670;2022-08-19T11:06:52;90893.09;;;28.33;31.77
44481;BME280;30184;42.018;23.670;2022-08-19T11:09:29;90902.56;;;28.37;32.12
44481;BME280;30184;42.018;23.670;2022-08-19T11:12:03;91280.34;;;31.36;32.91
44481;BME280;30184;42.018;23.670;2022-08-19T11:14:33;91051.25;;;30.15;30.88
44481;BME280;30184;42.018;23.670;2022-08-19T11:17:03;91333.81;;;31.38;31.54
44481;BME280;30184;42.018;23.670;2022-08-19T11:19:34;91097.41;;;29.83;31.64
44481;BME280;30184;42.018;23.670;2022-08-19T11:22:08;91209.13;;;31.39;30.01
44481;BME280;30184;42.018;23.670;2022-08-19T11:24:37;91213.56;;;31.42;30.89
44481;BME280;30184;42.018;23.670;2022-08-19T11:27:09;91089.00;;;30.38;30.38
44481;BME280;30184;42.018;23.670;2022-08-19T11:29:38;91128.03;;;30.36;30.86
44481;BME280;30184;42.018;23.670;2022-08-19T11:32:10;91165.47;;;31.29;29.85
44481;BME280;30184;42.018;23.670;2022-08-19T11:34:40;91050.19;;;30.02;29.77
44481;BME280;30184;42.018;23.670;2022-08-19T11:37:11;91012.75;;;30.23;29.70
44481;BME280;30184;42.018;23.670;2022-08-19T11:39:40;90869.97;;;29.33;30.88
44481;BME280;30184;42.018;23.670;2022-08-19T11:42:09;91069.66;;;30.90;30.38
44481;BME280;30184;42.018;23.670;2022-08-19T11:45:13;91032.19;;;29.73;29.26
44481;BME280;30184;42.018;23.670;2022-08-19T11:47:52;90777.81;;;28.85;29.29
44481;BME280;30184;42.018;23.670;2022-08-19T11:50:22;90776.88;;;28.90;29.15
44481;BME280;30184;42.018;23.670;2022-08-19T11:52:55;90996.03;;;29.67;28.63
44481;BME280;30184;42.018;23.670;2022-08-19T11:55:24;90998.81;;;29.67;28.76
44481;BME280;30184;42.018;23.670;2022-08-19T11:57:57;90868.44;;;29.00;28.69
44481;BME280;30184;42.018;23.670;2022-08-19T12:00:26;90952.09;;;30.00;28.78
44481;BME280;30184;42.018;23.670;2022-08-19T12:02:55;91043.41;;;30.53;28.69
44481;BME280;30184;42.018;23.670;2022-08-19T12:05:25;91022.31;;;30.20;28.51
44481;BME280;30184;42.018;23.670;2022-08-19T12:07:55;90929.72;;;30.25;27.92
44481;BME280;30184;42.018;23.670;2022-08-19T12:10:25;90981.34;;;30.07;28.84
44481;BME280;30184;42.018;23.670;2022-08-19T12:12:54;91154.56;;;32.00;28.76
44481;BME280;30184;42.018;23.670;2022-08-19T12:15:23;91162.59;;;32.03;28.95
44481;BME280;30184;42.018;23.670;2022-08-19T12:17:56;91129.22;;;31.90;29.33
44481;BME280;30184;42.018;23.670;2022-08-19T12:20:25;91062.75;;;31.16;27.98
44481;BME280;30184;42.018;23.670;2022-08-19T12:22:58;90832.69;;;29.46;28.15
44481;BME280;30184;42.018;23.670;2022-08-19T12:25:27;90933.50;;;30.45;29.57
44481;BME280;30184;42.018;23.670;2022-08-19T12:27:56;91123.22;;;32.11;28.18
44481;BME280;30184;42.018;23.670;2022-08-19T12:30:26;91131.22;;;32.14;28.22
44481;BME280;30184;42.018;23.670;2022-08-19T12:32:55;90855.16;;;30.20;28.18
44481;BME280;30184;42.018;23.670;2022-08-19T12:35:24;90956.13;;;30.89;28.08
44481;BME280;30184;42.018;23.670;2022-08-19T12:37:54;91137.09;;;32.26;27.58
44481;BME280;30184;42.018;23.670;2022-08-19T12:40:24;90890.78;;;29.87;28.07
44481;BME280;30184;42.018;23.670;2022-08-19T12:42:54;91143.78;;;32.31;27.67
44481;BME280;30184;42.018;23.670;2022-08-19T12:45:23;91124.88;;;32.31;27.70
44481;BME280;30184;42.018;23.670;2022-08-19T12:47:52;90839.34;;;29.50;26.67
44481;BME280;30184;42.018;23.670;2022-08-19T12:50:21;90870.59;;;30.46;26.67
44481;BME280;30184;42.018;23.670;2022-08-19T12:52:51;90892.56;;;30.74;27.12
44481;BME280;30184;42.018;23.670;2022-08-19T12:55:20;91138.03;;;31.44;26.89
44481;BME280;30184;42.018;23.670;2022-08-19T12:57:56;90968.16;;;30.50;26.65
44481;BME280;30184;42.018;23.670;2022-08-19T13:00:25;91125.94;;;32.36;26.94
44481;BME280;30184;42.018;23.670;2022-08-19T13:02:54;91111.59;;;32.32;27.01
44481;BME280;30184;42.018;23.670;2022-08-19T13:05:26;90882.44;;;30.79;27.05
44481;BME280;30184;42.018;23.670;2022-08-19T13:07:57;91125.19;;;32.52;26.42
44481;BME280;30184;42.018;23.670;2022-08-19T13:10:30;91121.03;;;32.53;26.17